createdAt,value
2023-05-15T00:05:52.022Z,15.10
2023-05-15T00:15:50.951Z,14.90
2023-05-15T00:25:49.783Z,14.80
2023-05-15T00:35:49.018Z,14.60
2023-05-15T00:45:47.968Z,14.50
2023-05-15T00:55:46.927Z,14.30
2023-05-15T01:05:45.946Z,14.20
2023-05-15T01:15:45.317Z,14.00
2023-05-15T01:25:43.889Z,13.90
2023-05-15T01:35:43.825Z,13.90
2023-05-15T01:45:42.876Z,13.90
2023-05-15T01:55:42.120Z,13.80
2023-05-15T02:05:41.375Z,13.70
2023-05-15T02:15:40.583Z,13.50
2023-05-15T02:25:40.310Z,13.40
2023-05-15T02:35:38.891Z,13.30
2023-05-15T04:32:18.654Z,12.90
2023-05-15T04:42:17.780Z,12.90
2023-05-15T04:52:16.716Z,13.60
2023-05-15T05:02:15.776Z,14.20
2023-05-15T05:12:14.715Z,14.40
2023-05-15T05:22:13.774Z,14.50
2023-05-15T05:32:15.872Z,14.50
2023-05-15T05:42:14.717Z,14.50
2023-05-15T05:52:13.837Z,14.70
2023-05-15T06:02:13.017Z,15.10
2023-05-15T06:12:12.163Z,15.20
2023-05-15T06:22:10.959Z,15.00
2023-05-15T06:32:09.774Z,15.00
2023-05-15T06:42:09.100Z,15.00
2023-05-15T06:52:07.838Z,15.10
2023-05-15T07:02:06.853Z,15.40
2023-05-15T07:12:05.861Z,15.30
2023-05-15T07:22:05.037Z,15.00
2023-05-15T07:32:03.966Z,15.30
2023-05-15T07:42:02.794Z,15.40
2023-05-15T07:52:01.856Z,15.80
2023-05-15T08:02:00.873Z,16.10
2023-05-15T08:12:00.284Z,16.00
2023-05-15T08:21:58.800Z,16.70
2023-05-15T08:31:58.045Z,17.50
2023-05-15T08:41:57.198Z,17.80
2023-05-15T08:51:56.169Z,17.80
2023-05-15T09:01:55.664Z,18.60
2023-05-15T09:11:54.902Z,19.10
2023-05-15T09:21:53.954Z,19.60
2023-05-15T09:31:52.943Z,19.60
2023-05-15T09:41:51.972Z,19.80
2023-05-15T09:51:51.392Z,19.70
2023-05-15T10:01:51.162Z,19.60
2023-05-15T10:11:50.189Z,19.80
2023-05-15T10:21:49.044Z,20.40
2023-05-15T10:31:48.611Z,20.50
2023-05-15T10:41:47.967Z,20.90
2023-05-15T10:51:47.032Z,20.90
2023-05-15T11:01:46.112Z,21.10
2023-05-15T11:11:44.998Z,21.30
2023-05-15T11:21:43.935Z,21.40
2023-05-15T11:31:42.982Z,21.40
2023-05-15T11:41:42.033Z,21.70
2023-05-15T11:51:42.812Z,21.90
2023-05-15T12:01:41.956Z,22.20
2023-05-15T12:11:40.984Z,22.30
2023-05-15T12:21:41.916Z,22.70
2023-05-15T12:31:41.116Z,23.00
2023-05-15T12:41:40.089Z,23.00
2023-05-15T12:51:39.800Z,22.50
2023-05-15T13:01:39.073Z,22.20
2023-05-15T13:11:38.040Z,22.70
2023-05-15T13:21:37.314Z,22.10
2023-05-15T13:31:36.116Z,21.70
2023-05-15T13:41:35.130Z,22.00
2023-05-15T13:51:34.154Z,22.50
2023-05-15T14:01:33.098Z,21.90
2023-05-15T14:11:32.066Z,22.20
2023-05-15T14:21:31.790Z,22.90
2023-05-15T14:31:31.229Z,22.60
2023-05-15T14:41:30.494Z,21.40
2023-05-15T14:51:29.136Z,21.50
2023-05-15T15:01:28.095Z,21.70
2023-05-15T15:11:27.070Z,21.70
2023-05-15T15:21:26.297Z,22.00
2023-05-15T15:31:25.287Z,22.00
2023-05-15T15:41:24.248Z,22.00
2023-05-15T15:51:23.230Z,22.90
2023-05-15T16:01:22.944Z,22.80
2023-05-15T16:11:22.244Z,22.90
2023-05-15T16:21:21.148Z,23.00
2023-05-15T16:31:20.191Z,20.80
2023-05-15T16:41:19.196Z,20.10
2023-05-15T16:51:18.176Z,19.80
2023-05-15T17:01:17.449Z,19.40
2023-05-15T17:11:16.237Z,19.20
2023-05-15T17:21:15.379Z,19.10
2023-05-15T17:31:14.234Z,19.20
2023-05-15T17:41:13.247Z,19.20
2023-05-15T17:51:12.289Z,18.90
2023-05-15T18:01:11.673Z,18.30
2023-05-15T18:11:21.360Z,17.80
2023-05-15T18:21:11.225Z,17.50
2023-05-15T18:31:10.262Z,17.20
2023-05-15T18:41:09.278Z,17.00
2023-05-15T18:51:08.638Z,16.80
2023-05-15T19:01:07.329Z,16.40
2023-05-15T19:11:08.159Z,15.70
2023-05-15T19:21:07.338Z,15.50
2023-05-15T19:31:11.782Z,15.30
2023-05-15T19:41:07.855Z,15.20
2023-05-15T19:51:06.672Z,15.10
2023-05-15T20:01:05.351Z,15.10
2023-05-15T20:11:04.403Z,15.10
2023-05-15T20:21:03.728Z,14.80
2023-05-15T20:31:02.676Z,14.70
2023-05-15T20:41:01.332Z,14.60
2023-05-15T20:51:00.396Z,14.60
2023-05-15T21:01:00.557Z,14.50
2023-05-15T21:10:59.401Z,14.50
2023-05-15T21:20:58.419Z,14.50
2023-05-15T21:30:57.425Z,14.50
2023-05-15T21:40:56.422Z,14.40
2023-05-15T21:50:56.153Z,14.30
2023-05-15T22:00:55.456Z,14.30
2023-05-15T22:10:54.419Z,14.10
2023-05-15T22:20:54.236Z,14.10
2023-05-15T22:30:53.417Z,14.10
2023-05-15T22:40:52.596Z,13.80
2023-05-15T22:50:52.152Z,13.50
2023-05-15T23:00:51.469Z,13.30
2023-05-15T23:10:52.493Z,13.20
2023-05-15T23:20:51.902Z,12.90
2023-05-15T23:30:50.464Z,12.80
2023-05-15T23:40:49.504Z,12.60
2023-05-15T23:50:49.138Z,12.20
